createdAt,value
2019-01-17T00:00:53.858Z,3.00
2019-01-17T00:03:51.794Z,3.30
2019-01-17T00:06:41.657Z,2.63
2019-01-17T00:09:25.084Z,2.70
2019-01-17T00:12:12.605Z,3.20
2019-01-17T00:15:07.581Z,4.17
2019-01-17T00:17:55.313Z,2.83
2019-01-17T00:20:43.746Z,3.30
2019-01-17T00:23:38.682Z,2.93
2019-01-17T00:26:26.510Z,2.93
2019-01-17T00:29:19.307Z,2.60
2019-01-17T00:32:05.693Z,2.40
2019-01-17T00:35:00.632Z,2.23
2019-01-17T00:37:39.173Z,1.80
2019-01-17T00:40:32.867Z,2.00
2019-01-17T00:43:24.682Z,1.90
2019-01-17T00:46:10.111Z,2.67
2019-01-17T00:49:11.335Z,1.83
2019-01-17T00:51:59.086Z,1.90
2019-01-17T00:54:47.059Z,2.17
2019-01-17T00:57:43.164Z,1.70
2019-01-17T01:00:24.388Z,2.17
2019-01-17T01:03:14.726Z,1.83
2019-01-17T01:06:06.900Z,1.73
2019-01-17T01:09:11.048Z,2.07
2019-01-17T01:12:03.011Z,2.93
2019-01-17T01:14:51.750Z,1.73
2019-01-17T01:17:39.573Z,2.57
2019-01-17T01:20:29.611Z,2.20
2019-01-17T01:23:22.365Z,2.13
2019-01-17T01:26:14.485Z,2.20
2019-01-17T01:29:02.073Z,2.87
2019-01-17T01:31:53.917Z,2.13
2019-01-17T01:34:44.108Z,2.30
2019-01-17T01:37:29.049Z,1.80
2019-01-17T01:40:13.121Z,2.40
2019-01-17T01:43:01.321Z,2.40
2019-01-17T01:45:56.049Z,3.40
2019-01-17T01:48:44.998Z,2.67
2019-01-17T01:51:38.393Z,2.23
2019-01-17T01:54:08.445Z,3.33
2019-01-17T01:56:38.444Z,2.40
2019-01-17T01:59:08.545Z,2.57
2019-01-17T02:01:38.462Z,3.10
2019-01-17T02:04:08.518Z,2.30
2019-01-17T02:06:39.827Z,2.60
2019-01-17T02:09:10.041Z,2.10
2019-01-17T02:11:40.037Z,2.43
2019-01-17T02:14:10.268Z,1.90
2019-01-17T02:16:40.310Z,2.10
2019-01-17T02:19:10.333Z,2.73
2019-01-17T02:21:40.332Z,2.30
2019-01-17T02:24:10.248Z,2.53
2019-01-17T02:26:40.315Z,2.40
2019-01-17T02:29:10.329Z,2.30
2019-01-17T02:31:40.340Z,4.57
2019-01-17T02:34:10.375Z,3.27
2019-01-17T02:36:40.480Z,2.77
2019-01-17T02:39:10.468Z,3.83
2019-01-17T02:41:41.133Z,2.23
2019-01-17T02:44:13.112Z,3.10
2019-01-17T02:46:43.211Z,3.67
2019-01-17T02:49:13.197Z,2.47
2019-01-17T02:51:44.812Z,2.50
2019-01-17T02:54:14.704Z,2.60
2019-01-17T02:56:44.732Z,2.97
2019-01-17T02:59:14.742Z,5.83
2019-01-17T03:01:44.719Z,3.33
2019-01-17T03:04:14.640Z,3.33
2019-01-17T03:06:44.538Z,4.80
2019-01-17T03:09:14.418Z,2.70
2019-01-17T03:11:44.405Z,3.33
2019-01-17T03:14:14.269Z,5.00
2019-01-17T03:16:44.249Z,4.03
2019-01-17T03:19:14.277Z,5.43
2019-01-17T03:21:44.292Z,4.10
2019-01-17T03:24:14.298Z,4.33
2019-01-17T03:26:44.273Z,4.90
2019-01-17T03:29:14.272Z,4.57
2019-01-17T03:31:44.230Z,6.77
2019-01-17T03:34:14.166Z,6.30
2019-01-17T03:36:44.195Z,6.53
2019-01-17T03:39:14.167Z,4.30
2019-01-17T03:41:44.161Z,3.93
2019-01-17T03:44:14.124Z,3.33
2019-01-17T03:46:44.057Z,4.77
2019-01-17T03:49:14.085Z,6.70
2019-01-17T03:51:44.135Z,6.83
2019-01-17T03:54:14.209Z,7.93
2019-01-17T03:56:44.099Z,9.60
2019-01-17T03:59:14.110Z,4.10
2019-01-17T04:01:44.085Z,5.47
2019-01-17T04:04:14.074Z,7.97
2019-01-17T04:06:43.885Z,5.43
2019-01-17T04:09:13.918Z,7.40
2019-01-17T04:11:43.894Z,7.10
2019-01-17T04:14:13.873Z,7.03
2019-01-17T04:16:43.827Z,6.67
2019-01-17T04:19:13.769Z,6.63
2019-01-17T04:21:43.649Z,9.97
2019-01-17T04:24:13.579Z,6.30
2019-01-17T04:26:43.550Z,8.40
2019-01-17T04:29:13.473Z,7.13
2019-01-17T04:31:43.464Z,7.17
2019-01-17T04:34:13.439Z,7.67
2019-01-17T04:36:43.370Z,10.67
2019-01-17T04:39:13.324Z,6.97
2019-01-17T04:41:43.316Z,6.43
2019-01-17T04:44:13.189Z,5.33
2019-01-17T04:46:43.086Z,6.57
2019-01-17T04:49:13.130Z,7.80
2019-01-17T04:51:43.028Z,7.07
2019-01-17T04:54:12.993Z,5.97
2019-01-17T04:56:42.847Z,5.20
2019-01-17T04:59:32.047Z,4.43
2019-01-17T05:02:02.001Z,7.20
2019-01-17T05:04:32.126Z,7.30
2019-01-17T05:07:02.137Z,6.60
2019-01-17T05:09:32.149Z,7.63
2019-01-17T05:12:02.058Z,4.67
2019-01-17T05:14:31.871Z,9.47
2019-01-17T05:17:01.798Z,5.97
2019-01-17T05:19:31.724Z,7.00
2019-01-17T05:22:01.662Z,6.80
2019-01-17T05:24:31.558Z,7.57
2019-01-17T05:27:01.580Z,7.00
2019-01-17T05:29:31.477Z,8.40
2019-01-17T05:32:01.603Z,6.50
2019-01-17T05:34:38.973Z,7.10
2019-01-17T05:37:03.374Z,5.53
2019-01-17T05:39:33.360Z,8.60
2019-01-17T05:42:03.641Z,5.10
2019-01-17T05:44:33.514Z,6.57
2019-01-17T05:47:03.341Z,6.90
2019-01-17T05:49:33.196Z,7.73
2019-01-17T05:52:03.265Z,5.10
2019-01-17T05:54:33.150Z,6.17
2019-01-17T05:57:03.018Z,7.37
2019-01-17T05:59:32.967Z,7.27
2019-01-17T06:02:02.888Z,5.83
2019-01-17T06:04:32.883Z,7.30
2019-01-17T06:07:02.896Z,7.13
2019-01-17T06:09:32.756Z,6.70
2019-01-17T06:12:02.635Z,5.43
2019-01-17T06:14:32.753Z,7.07
2019-01-17T06:17:02.846Z,5.73
2019-01-17T06:19:32.672Z,6.90
2019-01-17T06:22:02.704Z,6.47
2019-01-17T06:24:32.711Z,6.73
2019-01-17T06:27:02.651Z,5.37
2019-01-17T06:29:32.616Z,7.77
2019-01-17T06:32:02.584Z,7.13
2019-01-17T06:34:32.565Z,5.10
2019-01-17T06:37:02.536Z,7.03
2019-01-17T06:39:32.487Z,5.00
2019-01-17T06:42:02.522Z,6.63
2019-01-17T06:44:32.464Z,6.93
2019-01-17T06:47:02.515Z,6.17
2019-01-17T06:49:32.446Z,5.63
2019-01-17T06:52:02.538Z,6.90
2019-01-17T06:54:32.572Z,6.77
2019-01-17T06:57:02.589Z,5.70
2019-01-17T06:59:32.526Z,7.30
2019-01-17T07:02:02.433Z,6.43
2019-01-17T07:04:32.388Z,5.60
2019-01-17T07:07:02.345Z,6.23
2019-01-17T07:09:32.356Z,6.17
2019-01-17T07:12:02.375Z,5.20
2019-01-17T07:14:32.293Z,7.33
2019-01-17T07:17:02.141Z,6.67
2019-01-17T07:19:31.997Z,4.90
2019-01-17T07:22:01.902Z,6.03
2019-01-17T07:24:31.762Z,7.67
2019-01-17T07:27:01.648Z,6.67
2019-01-17T07:29:31.690Z,7.07
2019-01-17T07:32:01.679Z,8.57
2019-01-17T07:34:31.693Z,7.53
2019-01-17T07:37:01.668Z,7.73
2019-01-17T07:39:32.139Z,4.50
2019-01-17T07:42:02.059Z,6.67
2019-01-17T07:44:32.077Z,6.53
2019-01-17T07:47:01.994Z,5.23
2019-01-17T07:49:31.900Z,4.63
2019-01-17T07:52:01.889Z,5.87
2019-01-17T07:54:31.827Z,5.27
2019-01-17T07:57:01.871Z,6.00
2019-01-17T07:59:31.777Z,4.33
2019-01-17T08:02:01.746Z,3.43
2019-01-17T08:04:31.834Z,11.47
2019-01-17T08:07:01.782Z,4.90
2019-01-17T08:09:31.800Z,5.17
2019-01-17T08:12:05.049Z,5.23
2019-01-17T08:14:33.486Z,3.33
2019-01-17T08:17:04.578Z,4.10
2019-01-17T08:19:34.579Z,4.73
2019-01-17T08:22:04.668Z,3.33
2019-01-17T08:24:34.570Z,4.47
2019-01-17T08:27:06.208Z,5.07
2019-01-17T08:29:36.266Z,3.87
2019-01-17T08:32:06.199Z,3.03
2019-01-17T08:34:36.862Z,2.83
2019-01-17T08:37:06.848Z,4.40
2019-01-17T08:39:36.730Z,3.17
2019-01-17T08:42:06.751Z,3.03
2019-01-17T08:44:36.739Z,4.00
2019-01-17T08:47:06.762Z,3.17
2019-01-17T08:49:36.596Z,3.00
2019-01-17T08:52:06.622Z,4.77
2019-01-17T08:54:36.591Z,3.60
2019-01-17T08:57:06.495Z,3.20
2019-01-17T08:59:36.424Z,4.53
2019-01-17T09:02:06.464Z,3.27
2019-01-17T09:04:36.436Z,3.57
2019-01-17T09:07:06.537Z,2.60
2019-01-17T09:09:36.481Z,2.70
2019-01-17T09:12:06.465Z,4.00
2019-01-17T09:14:36.489Z,2.67
2019-01-17T09:17:06.410Z,2.40
2019-01-17T09:19:36.424Z,2.30
2019-01-17T09:22:06.381Z,4.43
2019-01-17T09:24:36.377Z,5.13
2019-01-17T09:27:06.272Z,1.90
2019-01-17T09:29:36.312Z,2.70
2019-01-17T09:32:06.317Z,3.27
2019-01-17T09:34:36.186Z,2.30
2019-01-17T09:37:06.225Z,3.53
2019-01-17T09:39:36.204Z,3.00
2019-01-17T09:42:06.214Z,3.97
2019-01-17T09:44:36.063Z,2.20
2019-01-17T09:47:06.043Z,2.87
2019-01-17T09:49:35.889Z,2.53
2019-01-17T09:52:05.907Z,3.20
2019-01-17T09:54:35.918Z,2.33
2019-01-17T09:57:05.946Z,1.90
2019-01-17T09:59:35.919Z,2.53
2019-01-17T10:02:05.951Z,1.70
2019-01-17T10:04:36.451Z,2.03
2019-01-17T10:07:06.518Z,4.70
2019-01-17T10:09:36.493Z,2.13
2019-01-17T10:12:06.494Z,2.70
2019-01-17T10:14:36.521Z,2.27
2019-01-17T10:17:46.391Z,2.40
2019-01-17T10:20:53.875Z,3.53
2019-01-17T10:23:49.888Z,3.33
2019-01-17T10:26:48.640Z,2.77
2019-01-17T10:30:18.935Z,2.53
2019-01-17T10:33:25.401Z,2.00
2019-01-17T10:36:21.276Z,2.33
2019-01-17T10:39:01.000Z,2.30
2019-01-17T10:42:02.565Z,2.20
2019-01-17T10:44:41.382Z,2.57
2019-01-17T10:47:43.485Z,4.33
2019-01-17T10:50:34.666Z,3.10
2019-01-17T10:53:21.610Z,2.60
2019-01-17T10:56:41.616Z,2.27
2019-01-17T10:59:45.399Z,2.50
2019-01-17T11:02:58.378Z,2.43
2019-01-17T11:05:46.471Z,2.27
2019-01-17T11:09:00.568Z,5.13
2019-01-17T11:11:48.833Z,3.50
2019-01-17T11:15:11.862Z,2.90
2019-01-17T11:18:23.137Z,2.70
2019-01-17T11:21:37.537Z,2.90
2019-01-17T11:24:22.263Z,2.70
2019-01-17T11:27:36.663Z,2.43
2019-01-17T11:30:25.832Z,3.30
2019-01-17T11:33:33.319Z,2.60
2019-01-17T11:36:29.040Z,2.87
2019-01-17T11:39:19.316Z,2.67
2019-01-17T11:42:21.490Z,3.90
2019-01-17T11:45:41.514Z,5.30
2019-01-17T11:48:31.702Z,1.83
2019-01-17T11:51:28.866Z,4.00
2019-01-17T11:54:14.398Z,3.37
2019-01-17T11:57:30.056Z,3.00
2019-01-17T12:00:39.598Z,5.43
2019-01-17T12:03:18.228Z,3.20
2019-01-17T12:05:49.313Z,2.30
2019-01-17T12:08:19.341Z,3.33
2019-01-17T12:10:49.297Z,2.40
2019-01-17T12:13:19.208Z,2.67
2019-01-17T12:15:49.163Z,2.10
2019-01-17T12:18:19.109Z,4.40
2019-01-17T12:20:49.090Z,2.30
2019-01-17T12:23:18.998Z,3.90
2019-01-17T12:25:48.976Z,3.73
2019-01-17T12:28:19.035Z,3.23
2019-01-17T12:30:48.961Z,3.03
2019-01-17T12:33:18.994Z,4.27
2019-01-17T12:35:48.903Z,3.40
2019-01-17T12:38:18.946Z,3.70
2019-01-17T12:40:48.906Z,3.03
2019-01-17T12:43:18.930Z,2.93
2019-01-17T12:45:48.973Z,4.30
2019-01-17T12:48:18.893Z,2.67
2019-01-17T12:50:49.091Z,3.87
2019-01-17T12:53:19.066Z,3.60
2019-01-17T12:55:50.026Z,4.27
2019-01-17T12:58:19.925Z,4.00
2019-01-17T13:00:49.889Z,4.10
2019-01-17T13:03:19.866Z,3.67
2019-01-17T13:05:49.970Z,2.80
2019-01-17T13:08:19.885Z,3.50
2019-01-17T13:10:49.943Z,3.43
2019-01-17T13:13:19.831Z,4.03
2019-01-17T13:15:49.792Z,2.93
2019-01-17T13:18:19.696Z,2.87
2019-01-17T13:20:49.594Z,3.40
2019-01-17T13:23:19.611Z,3.70
2019-01-17T13:25:49.595Z,3.53
2019-01-17T13:28:19.556Z,3.60
2019-01-17T13:30:49.502Z,3.50
2019-01-17T13:33:20.984Z,3.40
2019-01-17T13:35:51.145Z,3.90
2019-01-17T13:38:21.105Z,2.67
2019-01-17T13:40:51.109Z,3.33
2019-01-17T13:43:22.172Z,3.57
2019-01-17T13:45:52.159Z,2.40
2019-01-17T13:48:22.104Z,3.27
2019-01-17T13:50:52.075Z,2.90
2019-01-17T13:53:22.069Z,3.27
2019-01-17T13:55:51.950Z,2.47
2019-01-17T13:58:21.783Z,2.30
2019-01-17T14:00:51.804Z,3.07
2019-01-17T14:03:21.853Z,2.20
2019-01-17T14:05:51.989Z,2.30
2019-01-17T14:08:21.998Z,2.63
2019-01-17T14:10:52.055Z,1.83
2019-01-17T14:13:22.073Z,2.00
2019-01-17T14:15:52.029Z,1.80
2019-01-17T14:18:27.724Z,1.50
2019-01-17T14:20:53.798Z,2.00
2019-01-17T14:23:23.827Z,1.53
2019-01-17T14:25:53.851Z,1.50
2019-01-17T14:28:23.879Z,1.50
2019-01-17T14:30:54.047Z,2.57
2019-01-17T14:33:24.114Z,1.53
2019-01-17T14:35:54.056Z,1.50
2019-01-17T14:38:23.947Z,1.10
2019-01-17T14:40:53.857Z,2.50
2019-01-17T14:43:23.885Z,1.07
2019-01-17T14:45:53.759Z,1.43
2019-01-17T14:48:23.630Z,1.40
2019-01-17T14:50:53.617Z,1.43
2019-01-17T14:53:23.677Z,1.40
2019-01-17T14:55:53.569Z,1.20
2019-01-17T14:58:23.516Z,1.93
2019-01-17T15:00:53.488Z,1.10
2019-01-17T15:03:23.509Z,1.10
2019-01-17T15:05:53.479Z,1.50
2019-01-17T15:08:24.351Z,1.23
2019-01-17T15:10:54.284Z,1.10
2019-01-17T15:13:24.194Z,1.10
2019-01-17T15:15:54.133Z,1.33
2019-01-17T15:18:24.033Z,1.53
2019-01-17T15:20:53.995Z,2.53
2019-01-17T15:23:23.904Z,1.30
2019-01-17T15:25:53.859Z,1.27
2019-01-17T15:28:23.863Z,1.47
2019-01-17T15:30:53.910Z,1.50
2019-01-17T15:33:23.851Z,1.80
2019-01-17T15:35:53.758Z,1.50
2019-01-17T15:38:23.741Z,1.40
2019-01-17T15:40:53.718Z,1.03
2019-01-17T15:43:23.671Z,1.60
2019-01-17T15:45:53.637Z,1.50
2019-01-17T15:48:23.677Z,1.60
2019-01-17T15:50:53.668Z,1.73
2019-01-17T15:53:23.690Z,1.60
2019-01-17T15:56:12.777Z,1.70
2019-01-17T15:58:42.721Z,1.47
2019-01-17T16:01:12.701Z,1.70
2019-01-17T16:03:42.773Z,1.63
2019-01-17T16:06:13.012Z,1.80
2019-01-17T16:08:42.896Z,1.63
2019-01-17T16:11:12.896Z,1.70
2019-01-17T16:13:42.910Z,2.07
2019-01-17T16:16:12.940Z,2.07
2019-01-17T16:18:42.787Z,1.90
2019-01-17T16:21:12.809Z,2.00
2019-01-17T16:23:42.710Z,1.87
2019-01-17T16:26:12.573Z,1.77
2019-01-17T16:28:42.530Z,1.90
2019-01-17T16:31:12.426Z,1.70
2019-01-17T16:33:42.451Z,1.80
2019-01-17T16:36:12.264Z,1.50
2019-01-17T16:38:42.314Z,1.50
2019-01-17T16:41:12.238Z,1.40
2019-01-17T16:43:42.266Z,1.50
2019-01-17T16:46:12.343Z,1.60
2019-01-17T16:48:42.359Z,1.53
2019-01-17T16:51:12.332Z,1.50
2019-01-17T16:53:42.301Z,1.70
2019-01-17T16:56:12.316Z,1.80
2019-01-17T16:58:42.269Z,2.40
2019-01-17T17:01:12.278Z,2.20
2019-01-17T17:03:42.123Z,1.80
2019-01-17T17:06:12.140Z,1.60
2019-01-17T17:08:45.006Z,1.57
2019-01-17T17:11:15.079Z,1.90
2019-01-17T17:13:45.096Z,1.53
2019-01-17T17:16:15.158Z,1.67
2019-01-17T17:18:45.065Z,1.90
2019-01-17T17:21:15.159Z,1.83
2019-01-17T17:23:45.109Z,1.90
2019-01-17T17:26:16.016Z,1.67
2019-01-17T17:28:46.036Z,1.50
2019-01-17T17:31:16.034Z,1.90
2019-01-17T17:33:45.910Z,2.00
2019-01-17T17:36:15.743Z,1.90
2019-01-17T17:38:45.763Z,1.97
2019-01-17T17:41:15.751Z,1.90
2019-01-17T17:43:45.628Z,2.07
2019-01-17T17:46:15.627Z,1.80
2019-01-17T17:48:45.479Z,1.90
2019-01-17T17:51:15.506Z,1.93
2019-01-17T17:53:45.367Z,2.10
2019-01-17T17:56:15.264Z,2.10
2019-01-17T17:58:45.295Z,2.10
2019-01-17T18:01:23.643Z,2.30
2019-01-17T18:03:53.713Z,1.70
2019-01-17T18:06:23.746Z,1.80
2019-01-17T18:08:53.781Z,1.67
2019-01-17T18:11:23.806Z,1.70
2019-01-17T18:13:53.886Z,2.50
2019-01-17T18:16:23.868Z,1.80
2019-01-17T18:18:54.117Z,2.03
2019-01-17T18:21:24.109Z,1.50
2019-01-17T18:23:54.142Z,1.30
2019-01-17T18:26:24.102Z,2.00
2019-01-17T18:28:54.216Z,2.10
2019-01-17T18:31:24.117Z,1.80
2019-01-17T18:33:55.303Z,1.77
2019-01-17T18:36:25.299Z,1.90
2019-01-17T18:38:56.592Z,2.43
2019-01-17T18:41:26.568Z,2.00
2019-01-17T18:43:56.729Z,2.23
2019-01-17T18:46:26.763Z,2.03
2019-01-17T18:48:56.806Z,1.97
2019-01-17T18:51:26.823Z,2.40
2019-01-17T18:53:56.891Z,2.00
2019-01-17T18:56:27.015Z,1.87
2019-01-17T18:58:57.075Z,2.37
2019-01-17T19:01:27.095Z,2.00
2019-01-17T19:03:57.098Z,4.90
2019-01-17T19:06:27.064Z,2.17
2019-01-17T19:08:57.158Z,1.97
2019-01-17T19:11:27.171Z,2.10
2019-01-17T19:13:57.201Z,2.23
2019-01-17T19:16:27.197Z,1.80
2019-01-17T19:18:57.158Z,2.63
2019-01-17T19:21:27.132Z,1.53
2019-01-17T19:23:57.191Z,2.30
2019-01-17T19:26:27.254Z,2.00
2019-01-17T19:28:57.342Z,2.17
2019-01-17T19:31:27.355Z,3.03
2019-01-17T19:33:57.413Z,3.17
2019-01-17T19:36:27.393Z,1.90
2019-01-17T19:38:57.548Z,2.70
2019-01-17T19:41:27.489Z,1.93
2019-01-17T19:43:57.498Z,3.43
2019-01-17T19:46:27.612Z,1.53
2019-01-17T19:48:57.707Z,1.97
2019-01-17T19:51:27.729Z,3.93
2019-01-17T19:53:57.746Z,2.53
2019-01-17T19:56:27.694Z,2.03
2019-01-17T19:58:57.611Z,1.70
2019-01-17T20:01:27.686Z,2.17
2019-01-17T20:03:57.664Z,2.33
2019-01-17T20:06:27.669Z,3.50
2019-01-17T20:08:57.940Z,2.70
2019-01-17T20:11:27.832Z,1.80
2019-01-17T20:13:57.720Z,1.80
2019-01-17T20:16:27.718Z,2.23
2019-01-17T20:18:57.713Z,1.70
2019-01-17T20:21:27.727Z,1.43
2019-01-17T20:23:58.658Z,3.00
2019-01-17T20:26:28.655Z,1.47
2019-01-17T20:28:58.617Z,2.63
2019-01-17T20:31:28.519Z,1.77
2019-01-17T20:33:58.467Z,2.50
2019-01-17T20:36:28.495Z,2.40
2019-01-17T20:38:58.545Z,2.63
2019-01-17T20:41:28.475Z,3.23
2019-01-17T20:43:58.595Z,2.53
2019-01-17T20:46:28.591Z,2.67
2019-01-17T20:48:58.510Z,3.00
2019-01-17T20:51:28.374Z,1.90
2019-01-17T20:53:58.453Z,3.40
2019-01-17T20:56:28.346Z,1.60
2019-01-17T20:58:58.267Z,2.67
2019-01-17T21:01:45.561Z,2.77
2019-01-17T21:04:16.027Z,3.00
2019-01-17T21:06:46.050Z,2.13
2019-01-17T21:09:16.006Z,1.97
2019-01-17T21:11:45.966Z,1.40
2019-01-17T21:14:15.965Z,2.90
2019-01-17T21:16:45.952Z,1.83
2019-01-17T21:19:16.013Z,3.00
2019-01-17T21:21:45.993Z,4.00
2019-01-17T21:24:15.992Z,1.67
2019-01-17T21:26:45.925Z,1.80
2019-01-17T21:29:15.783Z,1.87
2019-01-17T21:31:45.764Z,2.77
2019-01-17T21:34:15.977Z,2.73
2019-01-17T21:36:45.937Z,4.00
2019-01-17T21:39:15.773Z,1.80
2019-01-17T21:41:45.755Z,2.33
2019-01-17T21:44:15.603Z,1.90
2019-01-17T21:46:45.580Z,2.17
2019-01-17T21:49:15.480Z,2.10
2019-01-17T21:51:45.420Z,3.20
2019-01-17T21:54:15.384Z,2.17
2019-01-17T21:56:45.544Z,2.47
2019-01-17T21:59:15.433Z,1.97
2019-01-17T22:01:45.517Z,2.80
2019-01-17T22:04:15.530Z,2.20
2019-01-17T22:06:53.343Z,2.00
2019-01-17T22:09:23.318Z,1.77
2019-01-17T22:11:53.252Z,1.90
2019-01-17T22:14:23.249Z,2.20
2019-01-17T22:16:53.276Z,2.47
2019-01-17T22:19:23.170Z,1.97
2019-01-17T22:21:53.072Z,2.23
2019-01-17T22:24:23.165Z,3.30
2019-01-17T22:26:53.177Z,2.17
2019-01-17T22:29:23.147Z,2.10
2019-01-17T22:31:53.014Z,2.07
2019-01-17T22:34:23.069Z,2.10
2019-01-17T22:36:53.083Z,2.23
2019-01-17T22:39:23.006Z,2.43
2019-01-17T22:41:52.946Z,2.00
2019-01-17T22:44:23.064Z,2.20
2019-01-17T22:46:53.068Z,2.13
2019-01-17T22:49:23.040Z,2.70
2019-01-17T22:51:53.147Z,2.03
2019-01-17T22:54:23.066Z,2.60
2019-01-17T22:56:52.999Z,2.20
2019-01-17T22:59:22.980Z,2.40
2019-01-17T23:01:53.002Z,2.07
2019-01-17T23:04:22.896Z,3.87
2019-01-17T23:06:52.962Z,2.57
2019-01-17T23:09:23.012Z,1.63
2019-01-17T23:11:52.986Z,2.20
2019-01-17T23:14:22.946Z,2.40
2019-01-17T23:16:52.791Z,2.00
2019-01-17T23:19:22.797Z,3.37
2019-01-17T23:21:52.765Z,2.03
2019-01-17T23:24:22.730Z,4.17
2019-01-17T23:26:52.603Z,2.10
2019-01-17T23:29:22.506Z,2.57
2019-01-17T23:31:52.588Z,1.80
2019-01-17T23:34:22.569Z,2.00
2019-01-17T23:36:52.549Z,2.07
2019-01-17T23:39:22.437Z,2.70
2019-01-17T23:41:52.398Z,4.20
2019-01-17T23:44:22.280Z,2.93
2019-01-17T23:46:52.273Z,2.93
2019-01-17T23:49:22.228Z,2.93
2019-01-17T23:51:52.149Z,2.33
2019-01-17T23:54:22.040Z,5.20
2019-01-17T23:56:52.009Z,3.40
2019-01-17T23:59:22.688Z,5.57
